Kahoka, Missouri
Current Conditions -  °F | °C
As of 6:35 AM on Wednesday 26 Nov 2014 (Local Time) from KEOK Reporting Station
Overcast Overcast  
Wind Chill: 21°   Ceiling: 7500
Heat Index: 30°   Visibility: 10mi
Dew Point: 25°   Wind: 10mph
Humidity: 80%   Direction: 120°ESE
Pressure: 30"   Gusts: NA
Location:  40.42°N, 91.72°W
Report Text: KEOK 261235Z AUTO 12009KT 10SM FEW065 BKN075 OVC090 M01/M04 A3000 RMK AO2
Loading
Personal Weather Stations






























Interactive Weather Map New forecast layout! Learn more

10-Day Weather Forecast

Advertisements
Track Severe Weather on mobile